Dades de l'estació automàtica Santuari de Queralt
Resum diari
19:00 TU| Temperatura mitjana | 27.4 °C | |
|---|---|---|
| Temperatura màxima | 33.0 °C | 12:22 TU |
| Temperatura mínima | 23.8 °C | 5:00 TU |
| Humitat relativa mitjana | 44% | |
| Precipitació acumulada | 0.0 mm | |
| Ratxa màxima del vent (10 m) | 41.8 km/h - 190º | 12:50 TU |
| Irradiació solar global | 22.0 MJ/m2 | |
El tram horari està expressat en Temps Universal (TU). Cal sumar una hora en horari d'hivern i dues en horari d'estiu per passar a l'hora oficial.
Santuari de Queralt
| Municipi | Berga |
|---|---|
| Comarca | Berguedà |
| Altitud | 1169 m |
| Data alta | 23.01.2002 |
| Estat actual | Operativa |
| Període TU |
TM °C |
TX °C |
TN °C |
HRM % |
PPT mm |
VVM (10 m) km/h |
DVM (10 m) graus |
VVX (10 m) km/h |
RS W/m2 |
|---|---|---|---|---|---|---|---|---|---|
| 00:00 - 00:30 | 24.2 | 24.4 | 24.0 | 61 | 0.0 | 1.1 | 199 | 6.5 | 0 |
| 00:30 - 01:00 | 24.3 | 24.5 | 24.1 | 60 | 0.0 | 0.7 | 183 | 6.1 | 0 |
| 01:00 - 01:30 | 24.4 | 24.7 | 24.2 | 58 | 0.0 | 1.1 | 219 | 5.0 | 0 |
| 01:30 - 02:00 | 24.6 | 24.6 | 24.5 | 55 | 0.0 | 1.1 | 221 | 4.7 | 0 |
| 02:00 - 02:30 | 24.6 | 24.8 | 24.5 | 54 | 0.0 | 4.0 | 231 | 7.2 | 0 |
| 02:30 - 03:00 | 24.6 | 24.7 | 24.4 | 55 | 0.0 | 4.7 | 232 | 9.0 | 0 |
| 03:00 - 03:30 | 24.4 | 24.5 | 24.2 | 55 | 0.0 | 1.1 | 238 | 6.8 | 0 |
| 03:30 - 04:00 | 24.4 | 24.5 | 24.2 | 56 | 0.0 | 1.1 | 233 | 5.8 | 0 |
| 04:00 - 04:30 | 24.3 | 24.6 | 24.1 | 54 | 0.0 | 3.2 | 234 | 7.6 | 0 |
| 04:30 - 05:00 | 24.3 | 24.8 | 23.8 | 52 | 0.0 | 1.1 | 134 | 6.8 | 0 |
| 05:00 - 05:30 | 24.3 | 24.6 | 23.8 | 48 | 0.0 | 1.8 | 218 | 9.7 | 0 |
| 05:30 - 06:00 | 25.1 | 25.7 | 24.6 | 40 | 0.0 | 1.8 | 173 | 8.3 | 12 |
| 06:00 - 06:30 | 25.2 | 25.6 | 24.7 | 39 | 0.0 | 4.7 | 251 | 17.6 | 82 |
| 06:30 - 07:00 | 25.4 | 25.8 | 25.2 | 47 | 0.0 | 2.2 | 180 | 8.6 | 212 |
| 07:00 - 07:30 | 25.9 | 26.2 | 25.1 | 50 | 0.0 | 1.8 | 156 | 7.6 | 250 |
| 07:30 - 08:00 | 26.3 | 27.4 | 25.0 | 47 | 0.0 | 2.5 | 158 | 10.1 | 375 |
| 08:00 - 08:30 | 27.7 | 28.1 | 27.4 | 46 | 0.0 | 6.1 | 164 | 13.0 | 467 |
| 08:30 - 09:00 | 27.3 | 27.9 | 26.7 | 45 | 0.0 | 6.8 | 163 | 12.2 | 553 |
| 09:00 - 09:30 | 28.2 | 29.0 | 27.4 | 41 | 0.0 | 7.6 | 154 | 13.0 | 633 |
| 09:30 - 10:00 | 28.9 | 29.4 | 28.3 | 41 | 0.0 | 9.0 | 157 | 15.5 | 697 |
| 10:00 - 10:30 | 29.3 | 30.1 | 28.3 | 42 | 0.0 | 10.1 | 162 | 17.3 | 745 |
| 10:30 - 11:00 | 30.1 | 30.7 | 29.0 | 40 | 0.0 | 12.6 | 168 | 21.2 | 781 |
| 11:00 - 11:30 | 30.8 | 31.5 | 30.0 | 37 | 0.0 | 15.5 | 174 | 23.8 | 808 |
| 11:30 - 12:00 | 31.2 | 31.8 | 30.7 | 34 | 0.0 | 18.4 | 179 | 33.8 | 818 |
| 12:00 - 12:30 | 32.3 | 33.0 | 31.7 | 30 | 0.0 | 17.6 | 176 | 32.8 | 821 |
| 12:30 - 13:00 | 32.1 | 32.9 | 30.9 | 30 | 0.0 | 22.7 | 180 | 41.8 | 753 |
| 13:00 - 13:30 | 32.2 | 32.9 | 31.5 | 30 | 0.0 | 19.4 | 171 | 34.9 | 772 |
| 13:30 - 14:00 | 32.5 | 33.0 | 32.3 | 28 | 0.0 | 20.5 | 175 | 32.0 | 728 |
| 14:00 - 14:30 | 32.3 | 32.8 | 31.4 | 29 | 0.0 | 22.3 | 172 | 37.4 | 629 |
| 14:30 - 15:00 | 31.8 | 32.1 | 31.5 | 30 | 0.0 | 21.2 | 182 | 31.3 | 606 |
| 15:00 - 15:30 | 31.0 | 31.6 | 30.3 | 33 | 0.0 | 20.2 | 179 | 30.6 | 505 |
| 15:30 - 16:00 | 30.0 | 30.7 | 29.3 | 38 | 0.0 | 18.0 | 174 | 27.4 | 395 |
| 16:00 - 16:30 | 29.3 | 29.7 | 29.0 | 39 | 0.0 | 14.0 | 178 | 23.0 | 313 |
| 16:30 - 17:00 | 28.6 | 29.0 | 28.0 | 40 | 0.0 | 11.5 | 166 | 19.1 | 210 |
| 17:00 - 17:30 | 27.1 | 28.0 | 26.3 | 42 | 0.0 | 7.6 | 172 | 15.8 | 97 |
| 17:30 - 18:00 | 25.8 | 26.2 | 25.4 | 45 | 0.0 | 4.3 | 190 | 9.7 | 24 |
| 18:00 - 18:30 | 25.0 | 25.3 | 24.8 | 48 | 0.0 | 6.1 | 214 | 11.9 | 1 |
| 18:30 - 19:00 | 24.8 | 25.0 | 24.4 | 49 | 0.0 | 2.2 | 217 | 7.2 | 0 |
| 19:00 - 19:30 | 24.3 | 24.5 | 24.2 | 51 | 0.0 | 4.3 | 179 | 8.6 | 0 |
Les dades en taronja només han passat un control de qualitat automàtic. Resta pendent la seva validació definitiva.